createdAt,value
2019-01-19T00:01:12.035Z,3.8
2019-01-19T00:06:09.470Z,3.8
2019-01-19T00:11:06.605Z,3.8
2019-01-19T00:16:03.808Z,3.8
2019-01-19T00:21:00.980Z,3.9
2019-01-19T00:25:58.439Z,3.9
2019-01-19T00:30:55.643Z,3.1
2019-01-19T00:35:52.614Z,4
2019-01-19T00:40:49.664Z,4
2019-01-19T00:45:47.033Z,4
2019-01-19T00:50:43.969Z,4
2019-01-19T00:55:41.119Z,4
2019-01-19T01:00:38.422Z,3.9
2019-01-19T01:05:35.144Z,3.1
2019-01-19T01:10:32.279Z,3.9
2019-01-19T01:15:29.366Z,3.8
2019-01-19T01:20:26.399Z,3.8
2019-01-19T01:25:23.542Z,3.8
2019-01-19T01:30:20.533Z,3.8
2019-01-19T01:35:17.754Z,3.7
2019-01-19T01:40:14.733Z,3.7
2019-01-19T01:45:11.944Z,3.7
2019-01-19T01:50:09.114Z,3.5
2019-01-19T01:55:06.261Z,3.5
2019-01-19T02:00:03.605Z,3.4
2019-01-19T02:05:00.793Z,3.4
2019-01-19T02:09:57.844Z,3.3
2019-01-19T02:14:54.931Z,3.4
2019-01-19T02:19:52.150Z,2.5
2019-01-19T02:24:49.018Z,3.4
2019-01-19T02:29:46.221Z,3.2
2019-01-19T02:34:43.375Z,2.3
2019-01-19T02:39:40.563Z,3.1
2019-01-19T02:44:37.625Z,3.2
2019-01-19T02:49:34.793Z,3.2
2019-01-19T02:54:32.231Z,3.2
2019-01-19T02:59:29.402Z,3.3
2019-01-19T03:04:26.753Z,3.3
2019-01-19T03:09:23.550Z,3.3
2019-01-19T03:14:20.712Z,3.3
2019-01-19T03:19:17.604Z,3.3
2019-01-19T03:24:14.878Z,3.4
2019-01-19T03:29:12.525Z,3.3
2019-01-19T03:34:06.661Z,3.3
2019-01-19T03:39:03.885Z,3.2
2019-01-19T03:44:01.179Z,3.2
2019-01-19T03:48:57.928Z,3.2
2019-01-19T03:53:55.207Z,3.3
2019-01-19T03:58:52.515Z,3.2
2019-01-19T04:03:49.478Z,3.3
2019-01-19T04:08:46.661Z,3.3
2019-01-19T04:13:43.843Z,3.2
2019-01-19T04:18:40.959Z,3.2
2019-01-19T04:23:38.260Z,3.3
2019-01-19T04:28:35.668Z,3.3
2019-01-19T04:33:32.830Z,3.3
2019-01-19T04:38:30.203Z,3.3
2019-01-19T04:43:27.541Z,3.3
2019-01-19T04:48:24.636Z,3.2
2019-01-19T04:53:21.794Z,3.2
2019-01-19T05:03:15.553Z,3.2
2019-01-19T05:08:12.823Z,3.1
2019-01-19T05:13:09.718Z,2.9
2019-01-19T05:18:06.803Z,3.1
2019-01-19T05:23:03.843Z,3.1
2019-01-19T05:28:00.811Z,3.1
2019-01-19T05:32:58.162Z,3
2019-01-19T05:37:55.216Z,3
2019-01-19T05:42:52.574Z,2.9
2019-01-19T05:47:49.495Z,2.8
2019-01-19T05:52:46.752Z,2.8
2019-01-19T05:57:43.768Z,2.7
2019-01-19T06:02:40.731Z,2.7
2019-01-19T06:07:37.273Z,2.6
2019-01-19T06:12:34.542Z,2.7
2019-01-19T06:17:31.546Z,2.7
2019-01-19T06:22:28.499Z,2.7
2019-01-19T06:27:25.636Z,2.8
2019-01-19T06:32:22.909Z,2.1
2019-01-19T06:37:20.106Z,2.9
2019-01-19T06:42:17.317Z,2.9
2019-01-19T06:47:14.329Z,2.9
2019-01-19T06:52:11.579Z,2.9
2019-01-19T06:57:08.874Z,3
2019-01-19T07:02:06.076Z,3
2019-01-19T07:07:03.129Z,2.1
2019-01-19T07:12:00.310Z,3
2019-01-19T07:16:57.137Z,-5.4
2019-01-19T07:21:54.244Z,3
2019-01-19T07:26:51.372Z,3
2019-01-19T07:31:48.763Z,3.1
2019-01-19T07:36:46.085Z,3.2
2019-01-19T07:41:43.051Z,3.2
2019-01-19T07:46:40.168Z,3.2
2019-01-19T07:51:37.232Z,3.3
2019-01-19T07:56:34.558Z,2.3
2019-01-19T08:01:31.907Z,3.3
2019-01-19T08:06:28.745Z,2.6
2019-01-19T08:11:25.861Z,3.5
2019-01-19T08:16:22.822Z,-4.7
2019-01-19T08:21:19.789Z,3.6
2019-01-19T08:26:16.512Z,3.6
2019-01-19T08:31:13.894Z,3.7
2019-01-19T08:36:10.846Z,3.7
2019-01-19T08:41:08.093Z,3.8
2019-01-19T08:46:05.535Z,3.9
2019-01-19T08:51:02.384Z,3.9
2019-01-19T08:55:59.820Z,4.1
2019-01-19T09:00:57.176Z,4.1
2019-01-19T09:05:54.407Z,4.2
2019-01-19T09:10:51.600Z,4
2019-01-19T09:15:48.657Z,4.3
2019-01-19T09:20:46.022Z,4.3
2019-01-19T09:25:43.430Z,4.4
2019-01-19T09:30:40.625Z,4.5
2019-01-19T09:35:38.055Z,4.6
2019-01-19T09:40:35.485Z,4.6
2019-01-19T09:45:32.860Z,4.6
2019-01-19T09:50:30.249Z,4.5
2019-01-19T09:55:27.370Z,4.8
2019-01-19T10:00:24.643Z,4.8
2019-01-19T10:05:21.842Z,4.8
2019-01-19T10:10:19.416Z,4.9
2019-01-19T10:15:16.465Z,5
2019-01-19T10:20:13.585Z,5
2019-01-19T10:25:10.892Z,5
2019-01-19T10:30:08.307Z,5
2019-01-19T10:35:05.600Z,5
2019-01-19T10:40:03.010Z,5
2019-01-19T10:45:00.252Z,5
2019-01-19T10:49:57.638Z,5
2019-01-19T10:54:54.728Z,5.1
2019-01-19T10:59:52.259Z,5.1
2019-01-19T11:04:49.332Z,5.1
2019-01-19T11:09:46.589Z,5.1
2019-01-19T11:14:43.938Z,5.1
2019-01-19T11:19:41.286Z,5.1
2019-01-19T11:24:38.326Z,5.3
2019-01-19T11:29:35.622Z,5.3
2019-01-19T11:34:32.782Z,5.3
2019-01-19T11:39:29.866Z,5.3
2019-01-19T11:44:27.101Z,5.4
2019-01-19T11:49:24.303Z,5.5
2019-01-19T11:54:21.332Z,5.5
2019-01-19T11:59:18.847Z,5.6
2019-01-19T12:04:16.352Z,5.5
2019-01-19T12:09:13.587Z,5.6
2019-01-19T12:14:10.790Z,5.6
2019-01-19T12:19:08.192Z,5.4
2019-01-19T12:24:05.690Z,5.6
2019-01-19T12:29:02.770Z,5.7
2019-01-19T12:33:59.976Z,5.8
2019-01-19T12:38:57.279Z,5.8
2019-01-19T12:43:54.453Z,5.8
2019-01-19T12:48:51.574Z,5.8
2019-01-19T12:53:48.822Z,5.8
2019-01-19T12:58:45.956Z,5.8
2019-01-19T13:03:43.299Z,5.9
2019-01-19T13:08:40.495Z,5.9
2019-01-19T13:13:37.613Z,5.9
2019-01-19T13:18:34.896Z,5.9
2019-01-19T13:23:32.051Z,5.9
2019-01-19T13:28:29.409Z,5.9
2019-01-19T13:33:26.519Z,5.8
2019-01-19T13:38:23.876Z,5.9
2019-01-19T13:43:21.009Z,5.9
2019-01-19T13:48:18.224Z,6
2019-01-19T13:53:15.416Z,6
2019-01-19T13:58:12.829Z,6
2019-01-19T14:03:10.025Z,5.9
2019-01-19T14:08:07.371Z,6
2019-01-19T14:13:04.703Z,6
2019-01-19T14:18:02.943Z,6
2019-01-19T14:23:00.603Z,5.9
2019-01-19T14:27:57.864Z,5.9
2019-01-19T14:32:55.050Z,5.9
2019-01-19T14:37:52.335Z,5.9
2019-01-19T14:42:49.575Z,5.9
2019-01-19T14:47:47.012Z,5
2019-01-19T14:52:43.890Z,5.8
2019-01-19T14:57:41.139Z,5.7
2019-01-19T15:02:38.293Z,5.7
2019-01-19T15:07:35.685Z,5.7
2019-01-19T15:12:33.019Z,5.6
2019-01-19T15:17:30.406Z,5.6
2019-01-19T15:22:27.410Z,5.6
2019-01-19T15:27:24.763Z,5.6
2019-01-19T15:32:22.179Z,4.7
2019-01-19T15:37:18.795Z,5.4
2019-01-19T15:42:16.039Z,5.5
2019-01-19T15:47:13.399Z,5.5
2019-01-19T15:52:10.670Z,5.4
2019-01-19T15:57:07.836Z,5.4
2019-01-19T16:02:05.435Z,5.4
2019-01-19T16:07:02.268Z,5.4
2019-01-19T16:11:59.520Z,5.5
2019-01-19T16:16:56.610Z,5.5
2019-01-19T16:21:53.803Z,5.5
2019-01-19T16:26:51.202Z,4.7
2019-01-19T16:31:48.599Z,4.7
2019-01-19T16:36:45.861Z,5.5
2019-01-19T16:41:42.974Z,5.5
2019-01-19T16:46:44.747Z,5.6
2019-01-19T16:51:37.381Z,4.8
2019-01-19T16:56:34.847Z,5.6
2019-01-19T17:01:32.007Z,5.7
2019-01-19T17:06:29.294Z,5.8
2019-01-19T17:11:26.224Z,5.8
2019-01-19T17:16:23.471Z,5.9
2019-01-19T17:21:20.752Z,6
2019-01-19T17:26:18.111Z,6.1
2019-01-19T17:31:15.227Z,6.1
2019-01-19T17:36:12.419Z,5.9
2019-01-19T17:41:10.285Z,6.3
2019-01-19T17:46:07.487Z,6.3
2019-01-19T17:51:04.355Z,6.4
2019-01-19T17:56:01.518Z,6.4
2019-01-19T18:00:58.755Z,6.5
2019-01-19T18:05:56.026Z,6.5
2019-01-19T18:10:53.406Z,6.5
2019-01-19T18:15:51.313Z,6.5
2019-01-19T18:20:48.669Z,6.5
2019-01-19T18:25:45.935Z,6.5
2019-01-19T18:30:43.236Z,6.4
2019-01-19T18:35:40.701Z,6.4
2019-01-19T18:40:37.820Z,6.1
2019-01-19T18:45:35.239Z,6.4
2019-01-19T18:50:32.160Z,6.3
2019-01-19T18:55:29.481Z,6.3
2019-01-19T19:00:26.662Z,6.3
2019-01-19T19:05:23.996Z,6.3
2019-01-19T19:10:20.840Z,6.2
2019-01-19T19:15:17.685Z,6.2
2019-01-19T19:20:15.159Z,6.2
2019-01-19T19:25:12.503Z,6.2
2019-01-19T19:30:09.891Z,6.2
2019-01-19T19:35:07.188Z,6.2
2019-01-19T19:40:09.623Z,6.1
2019-01-19T19:45:01.812Z,3.8
2019-01-19T19:49:58.780Z,6.1
2019-01-19T19:54:55.434Z,6.1
2019-01-19T19:59:52.392Z,6.1
2019-01-19T20:04:49.679Z,6.1
2019-01-19T20:09:46.955Z,6.1
2019-01-19T20:14:44.370Z,6.1
2019-01-19T20:19:41.504Z,6.1
2019-01-19T20:24:38.609Z,6
2019-01-19T20:29:35.792Z,6
2019-01-19T20:34:33.098Z,6
2019-01-19T20:39:30.530Z,5.9
2019-01-19T20:44:27.718Z,5.9
2019-01-19T20:49:25.260Z,6
2019-01-19T20:54:22.420Z,6
2019-01-19T20:59:19.714Z,5.9
2019-01-19T21:04:18.576Z,5.9
2019-01-19T21:09:14.366Z,5.9
2019-01-19T21:14:11.732Z,5.9
2019-01-19T21:19:09.006Z,5.9
2019-01-19T21:24:05.884Z,5.9
2019-01-19T21:29:02.875Z,6
2019-01-19T21:34:00.028Z,5.9
2019-01-19T21:38:57.279Z,5.9
2019-01-19T21:43:54.513Z,5.9
2019-01-19T21:48:51.754Z,5.9
2019-01-19T21:53:48.875Z,5.9
2019-01-19T21:58:46.111Z,5.6
2019-01-19T22:03:43.275Z,5.9
2019-01-19T22:08:40.683Z,5.9
2019-01-19T22:13:37.397Z,5.9
2019-01-19T22:18:34.430Z,5.9
2019-01-19T22:23:31.495Z,5.8
2019-01-19T22:28:28.711Z,5.9
2019-01-19T22:33:26.140Z,5.9
2019-01-19T22:38:23.222Z,5.9
2019-01-19T22:43:20.385Z,5.8
2019-01-19T22:48:17.733Z,5.9
2019-01-19T22:53:15.107Z,5.9
2019-01-19T22:58:12.176Z,5.9
2019-01-19T23:03:09.485Z,5.9
2019-01-19T23:08:06.806Z,5.9
2019-01-19T23:13:04.175Z,5.9
2019-01-19T23:18:01.341Z,5.9
2019-01-19T23:22:58.594Z,5.8
2019-01-19T23:27:55.992Z,5.8
2019-01-19T23:32:53.313Z,5.9
2019-01-19T23:37:50.415Z,5.8
2019-01-19T23:42:47.676Z,5.9
2019-01-19T23:47:44.727Z,5.9
2019-01-19T23:52:41.962Z,5.9
2019-01-19T23:57:39.511Z,5.8
